sensor_id;sensor_type;location;lat;lon;timestamp;temperature;humidity
2002;DHT22;1003;48.002;7.788;2024-03-29T00:01:23;7.50;99.90
2002;DHT22;1003;48.002;7.788;2024-03-29T00:03:49;7.60;99.90
2002;DHT22;1003;48.002;7.788;2024-03-29T00:06:15;7.90;99.90
2002;DHT22;1003;48.002;7.788;2024-03-29T00:08:40;7.90;99.90
2002;DHT22;1003;48.002;7.788;2024-03-29T00:11:06;8.00;99.90
2002;DHT22;1003;48.002;7.788;2024-03-29T00:13:32;8.10;99.90
2002;DHT22;1003;48.002;7.788;2024-03-29T00:15:57;8.30;99.90
2002;DHT22;1003;48.002;7.788;2024-03-29T00:18:23;8.40;99.90
2002;DHT22;1003;48.002;7.788;2024-03-29T00:20:49;8.30;99.90
2002;DHT22;1003;48.002;7.788;2024-03-29T00:23:14;8.40;99.90
2002;DHT22;1003;48.002;7.788;2024-03-29T00:25:40;8.40;99.90
2002;DHT22;1003;48.002;7.788;2024-03-29T00:28:06;8.60;99.90
2002;DHT22;1003;48.002;7.788;2024-03-29T00:30:32;8.70;99.90
2002;DHT22;1003;48.002;7.788;2024-03-29T00:32:57;8.80;99.90
2002;DHT22;1003;48.002;7.788;2024-03-29T00:35:23;8.80;99.90
2002;DHT22;1003;48.002;7.788;2024-03-29T00:37:49;8.80;99.90
2002;DHT22;1003;48.002;7.788;2024-03-29T00:40:16;8.90;99.90
2002;DHT22;1003;48.002;7.788;2024-03-29T00:42:42;9.10;99.90
2002;DHT22;1003;48.002;7.788;2024-03-29T00:45:08;9.20;99.90
2002;DHT22;1003;48.002;7.788;2024-03-29T00:47:34;9.40;99.90
2002;DHT22;1003;48.002;7.788;2024-03-29T00:50:00;9.30;99.90
2002;DHT22;1003;48.002;7.788;2024-03-29T00:52:25;9.40;99.90
2002;DHT22;1003;48.002;7.788;2024-03-29T00:54:51;9.30;99.90
2002;DHT22;1003;48.002;7.788;2024-03-29T00:57:17;9.30;99.90
2002;DHT22;1003;48.002;7.788;2024-03-29T00:59:43;9.40;99.90
2002;DHT22;1003;48.002;7.788;2024-03-29T01:02:09;9.40;99.90
2002;DHT22;1003;48.002;7.788;2024-03-29T01:04:35;9.50;99.90
2002;DHT22;1003;48.002;7.788;2024-03-29T01:07:01;9.60;99.90
2002;DHT22;1003;48.002;7.788;2024-03-29T01:09:27;9.60;99.90
2002;DHT22;1003;48.002;7.788;2024-03-29T01:11:53;9.50;99.90
2002;DHT22;1003;48.002;7.788;2024-03-29T01:14:19;9.40;99.90
2002;DHT22;1003;48.002;7.788;2024-03-29T01:16:45;9.40;99.90
2002;DHT22;1003;48.002;7.788;2024-03-29T01:19:11;9.50;99.90
2002;DHT22;1003;48.002;7.788;2024-03-29T01:21:36;9.50;99.90
2002;DHT22;1003;48.002;7.788;2024-03-29T01:24:03;9.50;99.90
2002;DHT22;1003;48.002;7.788;2024-03-29T01:26:30;9.60;99.90
2002;DHT22;1003;48.002;7.788;2024-03-29T01:28:56;9.70;99.90
2002;DHT22;1003;48.002;7.788;2024-03-29T01:31:24;9.60;99.90
2002;DHT22;1003;48.002;7.788;2024-03-29T01:33:51;9.50;99.90
2002;DHT22;1003;48.002;7.788;2024-03-29T01:36:16;9.50;99.90
2002;DHT22;1003;48.002;7.788;2024-03-29T01:38:42;9.60;99.90
2002;DHT22;1003;48.002;7.788;2024-03-29T01:41:11;9.60;99.90
2002;DHT22;1003;48.002;7.788;2024-03-29T01:43:37;9.60;99.90
2002;DHT22;1003;48.002;7.788;2024-03-29T01:46:04;9.50;99.90
2002;DHT22;1003;48.002;7.788;2024-03-29T01:48:33;9.50;99.90
2002;DHT22;1003;48.002;7.788;2024-03-29T01:50:59;9.30;99.90
2002;DHT22;1003;48.002;7.788;2024-03-29T01:53:26;9.20;99.90
2002;DHT22;1003;48.002;7.788;2024-03-29T01:55:53;9.20;99.90
2002;DHT22;1003;48.002;7.788;2024-03-29T01:58:20;9.10;99.90
2002;DHT22;1003;48.002;7.788;2024-03-29T02:00:57;9.00;99.90
2002;DHT22;1003;48.002;7.788;2024-03-29T02:03:23;8.90;99.90
2002;DHT22;1003;48.002;7.788;2024-03-29T02:05:50;8.70;99.90
2002;DHT22;1003;48.002;7.788;2024-03-29T02:08:16;8.60;99.90
2002;DHT22;1003;48.002;7.788;2024-03-29T02:10:43;8.50;99.90
2002;DHT22;1003;48.002;7.788;2024-03-29T02:13:11;8.40;99.90
2002;DHT22;1003;48.002;7.788;2024-03-29T02:15:36;8.40;99.90
2002;DHT22;1003;48.002;7.788;2024-03-29T02:18:02;8.40;99.90
2002;DHT22;1003;48.002;7.788;2024-03-29T02:20:28;8.40;99.90
2002;DHT22;1003;48.002;7.788;2024-03-29T02:23:14;8.40;99.90
2002;DHT22;1003;48.002;7.788;2024-03-29T02:25:44;8.40;99.90
2002;DHT22;1003;48.002;7.788;2024-03-29T02:28:10;8.50;99.90
2002;DHT22;1003;48.002;7.788;2024-03-29T02:30:38;8.60;99.90
2002;DHT22;1003;48.002;7.788;2024-03-29T02:33:03;8.70;99.90
2002;DHT22;1003;48.002;7.788;2024-03-29T02:35:29;8.70;99.90
2002;DHT22;1003;48.002;7.788;2024-03-29T02:37:56;8.70;99.90
2002;DHT22;1003;48.002;7.788;2024-03-29T02:40:22;8.80;99.90
2002;DHT22;1003;48.002;7.788;2024-03-29T02:42:48;8.60;99.90
2002;DHT22;1003;48.002;7.788;2024-03-29T02:45:17;8.20;99.90
2002;DHT22;1003;48.002;7.788;2024-03-29T02:47:43;7.80;99.90
2002;DHT22;1003;48.002;7.788;2024-03-29T02:50:11;7.70;99.90
2002;DHT22;1003;48.002;7.788;2024-03-29T02:52:38;7.70;99.90
2002;DHT22;1003;48.002;7.788;2024-03-29T02:55:04;7.50;99.90
2002;DHT22;1003;48.002;7.788;2024-03-29T02:57:30;7.50;99.90
2002;DHT22;1003;48.002;7.788;2024-03-29T02:59:56;7.50;99.90
2002;DHT22;1003;48.002;7.788;2024-03-29T03:02:21;7.60;99.90
2002;DHT22;1003;48.002;7.788;2024-03-29T03:04:47;7.70;99.90
2002;DHT22;1003;48.002;7.788;2024-03-29T03:07:13;7.60;99.90
2002;DHT22;1003;48.002;7.788;2024-03-29T03:09:57;7.60;99.90
2002;DHT22;1003;48.002;7.788;2024-03-29T03:12:41;7.60;99.90
2002;DHT22;1003;48.002;7.788;2024-03-29T03:15:08;7.60;99.90
2002;DHT22;1003;48.002;7.788;2024-03-29T03:17:33;7.70;99.90
2002;DHT22;1003;48.002;7.788;2024-03-29T03:19:59;7.60;99.90
2002;DHT22;1003;48.002;7.788;2024-03-29T03:22:25;7.50;99.90
2002;DHT22;1003;48.002;7.788;2024-03-29T03:24:51;7.50;99.90
2002;DHT22;1003;48.002;7.788;2024-03-29T03:27:16;7.30;99.90
2002;DHT22;1003;48.002;7.788;2024-03-29T03:29:42;7.10;99.90
2002;DHT22;1003;48.002;7.788;2024-03-29T03:32:08;7.10;99.90
2002;DHT22;1003;48.002;7.788;2024-03-29T03:34:34;7.10;99.90
2002;DHT22;1003;48.002;7.788;2024-03-29T03:36:59;7.10;99.90
2002;DHT22;1003;48.002;7.788;2024-03-29T03:39:25;7.10;99.90
2002;DHT22;1003;48.002;7.788;2024-03-29T03:41:51;7.10;99.90
2002;DHT22;1003;48.002;7.788;2024-03-29T03:44:16;7.00;99.90
2002;DHT22;1003;48.002;7.788;2024-03-29T03:46:42;6.90;99.90
2002;DHT22;1003;48.002;7.788;2024-03-29T03:49:08;6.90;99.90
2002;DHT22;1003;48.002;7.788;2024-03-29T03:51:33;6.90;99.90
2002;DHT22;1003;48.002;7.788;2024-03-29T03:53:59;6.80;99.90
2002;DHT22;1003;48.002;7.788;2024-03-29T03:56:25;6.80;99.90
2002;DHT22;1003;48.002;7.788;2024-03-29T03:58:50;6.80;99.90
2002;DHT22;1003;48.002;7.788;2024-03-29T04:01:16;6.60;99.90
2002;DHT22;1003;48.002;7.788;2024-03-29T04:03:42;6.70;99.90
2002;DHT22;1003;48.002;7.788;2024-03-29T04:06:07;6.70;99.90
2002;DHT22;1003;48.002;7.788;2024-03-29T04:08:33;6.50;99.90
2002;DHT22;1003;48.002;7.788;2024-03-29T04:11:03;6.50;99.90
2002;DHT22;1003;48.002;7.788;2024-03-29T04:13:29;6.60;99.90
2002;DHT22;1003;48.002;7.788;2024-03-29T04:16:04;6.50;99.90
2002;DHT22;1003;48.002;7.788;2024-03-29T04:18:31;6.50;99.90
2002;DHT22;1003;48.002;7.788;2024-03-29T04:21:06;6.50;99.90
2002;DHT22;1003;48.002;7.788;2024-03-29T04:23:32;6.60;99.90
2002;DHT22;1003;48.002;7.788;2024-03-29T04:25:58;6.70;99.90
2002;DHT22;1003;48.002;7.788;2024-03-29T04:28:26;6.80;99.90
2002;DHT22;1003;48.002;7.788;2024-03-29T04:30:59;6.80;99.90
2002;DHT22;1003;48.002;7.788;2024-03-29T04:33:26;6.70;99.90
2002;DHT22;1003;48.002;7.788;2024-03-29T04:38:26;6.40;99.90
2002;DHT22;1003;48.002;7.788;2024-03-29T04:40:54;6.20;99.90
2002;DHT22;1003;48.002;7.788;2024-03-29T04:43:28;6.10;99.90
2002;DHT22;1003;48.002;7.788;2024-03-29T04:46:13;6.10;99.90
2002;DHT22;1003;48.002;7.788;2024-03-29T04:48:41;6.00;99.90
2002;DHT22;1003;48.002;7.788;2024-03-29T04:51:09;5.90;99.90
2002;DHT22;1003;48.002;7.788;2024-03-29T04:53:41;5.90;99.90
2002;DHT22;1003;48.002;7.788;2024-03-29T04:56:07;5.90;99.90
2002;DHT22;1003;48.002;7.788;2024-03-29T04:58:33;6.00;99.90
2002;DHT22;1003;48.002;7.788;2024-03-29T05:00:59;6.10;99.90
2002;DHT22;1003;48.002;7.788;2024-03-29T05:03:24;6.10;99.90
2002;DHT22;1003;48.002;7.788;2024-03-29T05:05:51;6.20;99.90
2002;DHT22;1003;48.002;7.788;2024-03-29T05:08:17;6.30;99.90
2002;DHT22;1003;48.002;7.788;2024-03-29T05:10:45;6.40;99.90
2002;DHT22;1003;48.002;7.788;2024-03-29T05:13:11;6.50;99.90
2002;DHT22;1003;48.002;7.788;2024-03-29T05:15:37;6.60;99.90
2002;DHT22;1003;48.002;7.788;2024-03-29T05:18:03;6.60;99.90
2002;DHT22;1003;48.002;7.788;2024-03-29T05:20:30;6.60;99.90
2002;DHT22;1003;48.002;7.788;2024-03-29T05:22:57;6.60;99.90
2002;DHT22;1003;48.002;7.788;2024-03-29T05:25:23;6.70;99.90
2002;DHT22;1003;48.002;7.788;2024-03-29T05:27:50;6.80;99.90
2002;DHT22;1003;48.002;7.788;2024-03-29T05:30:15;6.90;99.90
2002;DHT22;1003;48.002;7.788;2024-03-29T05:32:42;7.00;99.90
2002;DHT22;1003;48.002;7.788;2024-03-29T05:35:08;7.10;99.90
2002;DHT22;1003;48.002;7.788;2024-03-29T05:37:37;7.10;99.90
2002;DHT22;1003;48.002;7.788;2024-03-29T05:40:03;7.10;99.90
2002;DHT22;1003;48.002;7.788;2024-03-29T05:42:32;7.10;99.90
2002;DHT22;1003;48.002;7.788;2024-03-29T05:45:20;7.20;99.90
2002;DHT22;1003;48.002;7.788;2024-03-29T05:47:49;7.10;99.90
2002;DHT22;1003;48.002;7.788;2024-03-29T05:50:14;7.10;99.90
2002;DHT22;1003;48.002;7.788;2024-03-29T05:52:40;7.10;99.90
2002;DHT22;1003;48.002;7.788;2024-03-29T05:55:06;7.20;99.90
2002;DHT22;1003;48.002;7.788;2024-03-29T05:57:33;7.20;99.90
2002;DHT22;1003;48.002;7.788;2024-03-29T06:00:00;7.10;99.90
2002;DHT22;1003;48.002;7.788;2024-03-29T06:02:25;7.00;99.90
2002;DHT22;1003;48.002;7.788;2024-03-29T06:04:51;6.90;99.90
2002;DHT22;1003;48.002;7.788;2024-03-29T06:07:16;6.90;99.90
2002;DHT22;1003;48.002;7.788;2024-03-29T06:09:42;6.90;99.90
2002;DHT22;1003;48.002;7.788;2024-03-29T06:12:08;7.00;99.90
2002;DHT22;1003;48.002;7.788;2024-03-29T06:14:36;7.00;99.90
2002;DHT22;1003;48.002;7.788;2024-03-29T06:17:21;7.00;99.90
2002;DHT22;1003;48.002;7.788;2024-03-29T06:19:53;7.00;99.90
2002;DHT22;1003;48.002;7.788;2024-03-29T06:22:24;7.10;99.90
2002;DHT22;1003;48.002;7.788;2024-03-29T06:24:53;7.00;99.90
2002;DHT22;1003;48.002;7.788;2024-03-29T06:27:19;7.10;99.90
2002;DHT22;1003;48.002;7.788;2024-03-29T06:29:46;7.20;99.90
2002;DHT22;1003;48.002;7.788;2024-03-29T06:32:12;7.30;99.90
2002;DHT22;1003;48.002;7.788;2024-03-29T06:34:38;7.40;99.90
2002;DHT22;1003;48.002;7.788;2024-03-29T06:37:04;7.40;99.90
2002;DHT22;1003;48.002;7.788;2024-03-29T06:39:30;7.40;99.90
2002;DHT22;1003;48.002;7.788;2024-03-29T06:41:56;7.40;99.90
2002;DHT22;1003;48.002;7.788;2024-03-29T06:44:22;7.40;99.90
2002;DHT22;1003;48.002;7.788;2024-03-29T06:46:47;7.50;99.90
2002;DHT22;1003;48.002;7.788;2024-03-29T06:49:13;7.60;99.90
2002;DHT22;1003;48.002;7.788;2024-03-29T06:51:41;7.60;99.90
2002;DHT22;1003;48.002;7.788;2024-03-29T06:54:07;7.70;99.90
2002;DHT22;1003;48.002;7.788;2024-03-29T06:56:33;7.80;99.90
2002;DHT22;1003;48.002;7.788;2024-03-29T06:58:59;7.90;99.90
2002;DHT22;1003;48.002;7.788;2024-03-29T07:01:24;7.90;99.90
2002;DHT22;1003;48.002;7.788;2024-03-29T07:03:50;7.90;99.90
2002;DHT22;1003;48.002;7.788;2024-03-29T07:06:16;7.90;99.90
2002;DHT22;1003;48.002;7.788;2024-03-29T07:08:42;7.90;99.90
2002;DHT22;1003;48.002;7.788;2024-03-29T07:11:07;7.90;99.90
2002;DHT22;1003;48.002;7.788;2024-03-29T07:13:33;7.90;99.90
2002;DHT22;1003;48.002;7.788;2024-03-29T07:16:02;7.90;99.90
2002;DHT22;1003;48.002;7.788;2024-03-29T07:18:28;8.00;99.90
2002;DHT22;1003;48.002;7.788;2024-03-29T07:20:55;8.10;99.90
2002;DHT22;1003;48.002;7.788;2024-03-29T07:23:20;8.10;99.90
2002;DHT22;1003;48.002;7.788;2024-03-29T07:26:02;8.20;99.90
2002;DHT22;1003;48.002;7.788;2024-03-29T07:28:30;8.30;99.90
2002;DHT22;1003;48.002;7.788;2024-03-29T07:30:57;8.40;99.90
2002;DHT22;1003;48.002;7.788;2024-03-29T07:33:24;8.50;99.90
2002;DHT22;1003;48.002;7.788;2024-03-29T07:35:53;8.60;99.90
2002;DHT22;1003;48.002;7.788;2024-03-29T07:38:19;8.50;99.90
2002;DHT22;1003;48.002;7.788;2024-03-29T07:40:49;8.50;99.90
2002;DHT22;1003;48.002;7.788;2024-03-29T07:43:16;8.60;99.90
2002;DHT22;1003;48.002;7.788;2024-03-29T07:45:42;8.60;99.90
2002;DHT22;1003;48.002;7.788;2024-03-29T07:48:15;8.60;99.90
2002;DHT22;1003;48.002;7.788;2024-03-29T07:50:44;8.60;99.90
2002;DHT22;1003;48.002;7.788;2024-03-29T07:53:11;8.60;99.90
2002;DHT22;1003;48.002;7.788;2024-03-29T07:55:39;8.70;99.90
2002;DHT22;1003;48.002;7.788;2024-03-29T07:58:06;8.80;99.90
2002;DHT22;1003;48.002;7.788;2024-03-29T08:00:32;8.90;99.90
2002;DHT22;1003;48.002;7.788;2024-03-29T08:02:59;9.00;99.90
2002;DHT22;1003;48.002;7.788;2024-03-29T08:05:25;9.20;99.90
2002;DHT22;1003;48.002;7.788;2024-03-29T08:07:51;9.40;99.90
2002;DHT22;1003;48.002;7.788;2024-03-29T08:10:16;9.60;99.90
2002;DHT22;1003;48.002;7.788;2024-03-29T08:12:42;9.70;99.90
2002;DHT22;1003;48.002;7.788;2024-03-29T08:15:08;9.90;99.90
2002;DHT22;1003;48.002;7.788;2024-03-29T08:17:34;10.00;99.90
2002;DHT22;1003;48.002;7.788;2024-03-29T08:20:00;10.30;99.90
2002;DHT22;1003;48.002;7.788;2024-03-29T08:22:26;10.40;99.90
2002;DHT22;1003;48.002;7.788;2024-03-29T08:24:54;10.50;99.90
2002;DHT22;1003;48.002;7.788;2024-03-29T08:27:20;10.60;99.90
2002;DHT22;1003;48.002;7.788;2024-03-29T08:29:45;10.70;99.90
2002;DHT22;1003;48.002;7.788;2024-03-29T08:32:11;10.80;99.90
2002;DHT22;1003;48.002;7.788;2024-03-29T08:34:38;11.00;99.90
2002;DHT22;1003;48.002;7.788;2024-03-29T08:37:04;11.20;99.90
2002;DHT22;1003;48.002;7.788;2024-03-29T08:39:31;11.50;99.90
2002;DHT22;1003;48.002;7.788;2024-03-29T08:42:00;11.70;99.90
2002;DHT22;1003;48.002;7.788;2024-03-29T08:44:33;11.90;99.90
2002;DHT22;1003;48.002;7.788;2024-03-29T08:46:59;12.30;99.90
2002;DHT22;1003;48.002;7.788;2024-03-29T08:49:29;12.60;99.90
2002;DHT22;1003;48.002;7.788;2024-03-29T08:51:56;12.90;99.90
2002;DHT22;1003;48.002;7.788;2024-03-29T08:54:22;13.00;99.90
2002;DHT22;1003;48.002;7.788;2024-03-29T08:56:48;13.10;99.90
2002;DHT22;1003;48.002;7.788;2024-03-29T08:59:14;13.20;99.90
2002;DHT22;1003;48.002;7.788;2024-03-29T09:01:43;13.10;99.90
2002;DHT22;1003;48.002;7.788;2024-03-29T09:04:10;13.00;99.90
2002;DHT22;1003;48.002;7.788;2024-03-29T09:06:37;13.00;99.90
2002;DHT22;1003;48.002;7.788;2024-03-29T09:09:07;13.00;99.90
2002;DHT22;1003;48.002;7.788;2024-03-29T09:11:33;13.10;99.90
2002;DHT22;1003;48.002;7.788;2024-03-29T09:13:59;13.40;99.90
2002;DHT22;1003;48.002;7.788;2024-03-29T09:16:25;13.80;99.90
2002;DHT22;1003;48.002;7.788;2024-03-29T09:18:51;13.90;99.90
2002;DHT22;1003;48.002;7.788;2024-03-29T09:21:19;13.90;99.90
2002;DHT22;1003;48.002;7.788;2024-03-29T09:23:45;14.00;99.90
2002;DHT22;1003;48.002;7.788;2024-03-29T09:26:11;13.80;99.90
2002;DHT22;1003;48.002;7.788;2024-03-29T09:28:40;13.80;99.90
2002;DHT22;1003;48.002;7.788;2024-03-29T09:31:06;14.00;99.90
2002;DHT22;1003;48.002;7.788;2024-03-29T09:33:31;14.20;99.90
2002;DHT22;1003;48.002;7.788;2024-03-29T09:35:58;14.30;99.90
2002;DHT22;1003;48.002;7.788;2024-03-29T09:38:25;14.30;99.90
2002;DHT22;1003;48.002;7.788;2024-03-29T09:41:15;14.50;99.90
2002;DHT22;1003;48.002;7.788;2024-03-29T09:43:46;14.80;99.90
2002;DHT22;1003;48.002;7.788;2024-03-29T09:46:14;15.10;99.90
2002;DHT22;1003;48.002;7.788;2024-03-29T09:48:42;15.10;99.90
2002;DHT22;1003;48.002;7.788;2024-03-29T09:51:11;15.00;99.90
2002;DHT22;1003;48.002;7.788;2024-03-29T09:53:42;15.20;99.90
2002;DHT22;1003;48.002;7.788;2024-03-29T09:56:09;15.40;99.90
2002;DHT22;1003;48.002;7.788;2024-03-29T09:58:36;15.60;99.90
2002;DHT22;1003;48.002;7.788;2024-03-29T10:01:03;15.90;99.90
2002;DHT22;1003;48.002;7.788;2024-03-29T10:03:31;15.80;99.90
2002;DHT22;1003;48.002;7.788;2024-03-29T10:06:02;15.70;99.90
2002;DHT22;1003;48.002;7.788;2024-03-29T10:08:29;15.70;99.90
2002;DHT22;1003;48.002;7.788;2024-03-29T10:11:00;15.60;99.90
2002;DHT22;1003;48.002;7.788;2024-03-29T10:13:26;15.80;99.90
2002;DHT22;1003;48.002;7.788;2024-03-29T10:15:53;15.80;99.90
2002;DHT22;1003;48.002;7.788;2024-03-29T10:18:25;15.90;99.90
2002;DHT22;1003;48.002;7.788;2024-03-29T10:23:25;15.90;99.90
2002;DHT22;1003;48.002;7.788;2024-03-29T10:25:50;15.90;99.90
2002;DHT22;1003;48.002;7.788;2024-03-29T10:28:21;15.90;99.90
2002;DHT22;1003;48.002;7.788;2024-03-29T10:30:48;16.10;99.90
2002;DHT22;1003;48.002;7.788;2024-03-29T10:33:18;16.10;99.90
2002;DHT22;1003;48.002;7.788;2024-03-29T10:35:44;16.00;99.90
2002;DHT22;1003;48.002;7.788;2024-03-29T10:38:10;15.90;99.90
2002;DHT22;1003;48.002;7.788;2024-03-29T10:40:40;15.90;99.90
2002;DHT22;1003;48.002;7.788;2024-03-29T10:43:09;15.90;99.90
2002;DHT22;1003;48.002;7.788;2024-03-29T10:45:38;15.90;99.90
2002;DHT22;1003;48.002;7.788;2024-03-29T10:48:05;16.00;99.90
2002;DHT22;1003;48.002;7.788;2024-03-29T10:50:36;16.00;99.90
2002;DHT22;1003;48.002;7.788;2024-03-29T10:53:03;16.40;99.90
2002;DHT22;1003;48.002;7.788;2024-03-29T10:55:36;16.70;99.90
2002;DHT22;1003;48.002;7.788;2024-03-29T10:58:04;17.10;99.90
2002;DHT22;1003;48.002;7.788;2024-03-29T11:00:46;16.80;99.90
2002;DHT22;1003;48.002;7.788;2024-03-29T11:03:28;16.80;99.90
2002;DHT22;1003;48.002;7.788;2024-03-29T11:06:03;16.90;99.90
2002;DHT22;1003;48.002;7.788;2024-03-29T11:08:34;16.90;99.90
2002;DHT22;1003;48.002;7.788;2024-03-29T11:11:08;16.90;99.90
2002;DHT22;1003;48.002;7.788;2024-03-29T11:16:20;17.40;99.90
2002;DHT22;1003;48.002;7.788;2024-03-29T11:18:46;17.50;99.90
2002;DHT22;1003;48.002;7.788;2024-03-29T11:21:14;17.40;99.90
2002;DHT22;1003;48.002;7.788;2024-03-29T11:23:52;17.60;99.90
2002;DHT22;1003;48.002;7.788;2024-03-29T11:26:19;17.90;99.90
2002;DHT22;1003;48.002;7.788;2024-03-29T11:28:52;18.30;99.90
2002;DHT22;1003;48.002;7.788;2024-03-29T11:31:22;18.30;99.90
2002;DHT22;1003;48.002;7.788;2024-03-29T11:33:50;18.60;99.90
2002;DHT22;1003;48.002;7.788;2024-03-29T11:36:22;18.60;99.90
2002;DHT22;1003;48.002;7.788;2024-03-29T11:38:52;18.50;99.90
2002;DHT22;1003;48.002;7.788;2024-03-29T11:41:20;18.20;99.90
2002;DHT22;1003;48.002;7.788;2024-03-29T11:43:53;17.90;99.90
2002;DHT22;1003;48.002;7.788;2024-03-29T11:46:20;17.80;99.90
2002;DHT22;1003;48.002;7.788;2024-03-29T11:48:47;17.60;99.90
2002;DHT22;1003;48.002;7.788;2024-03-29T11:51:21;17.50;99.90
2002;DHT22;1003;48.002;7.788;2024-03-29T11:53:50;17.40;99.90
2002;DHT22;1003;48.002;7.788;2024-03-29T11:56:17;17.30;99.90
2002;DHT22;1003;48.002;7.788;2024-03-29T11:58:43;17.50;99.90
2002;DHT22;1003;48.002;7.788;2024-03-29T12:01:09;18.00;99.90
2002;DHT22;1003;48.002;7.788;2024-03-29T12:03:38;18.30;99.90
2002;DHT22;1003;48.002;7.788;2024-03-29T12:06:05;18.50;99.90
2002;DHT22;1003;48.002;7.788;2024-03-29T12:08:33;18.50;99.90
2002;DHT22;1003;48.002;7.788;2024-03-29T12:11:00;18.50;99.90
2002;DHT22;1003;48.002;7.788;2024-03-29T12:13:28;18.70;99.90
2002;DHT22;1003;48.002;7.788;2024-03-29T12:15:55;18.90;99.90
2002;DHT22;1003;48.002;7.788;2024-03-29T12:18:22;18.90;99.90
2002;DHT22;1003;48.002;7.788;2024-03-29T12:20:50;19.00;99.90
2002;DHT22;1003;48.002;7.788;2024-03-29T12:23:17;18.80;99.90
2002;DHT22;1003;48.002;7.788;2024-03-29T12:25:45;18.90;99.90
2002;DHT22;1003;48.002;7.788;2024-03-29T12:28:13;19.40;99.90
2002;DHT22;1003;48.002;7.788;2024-03-29T12:30:45;19.20;99.90
2002;DHT22;1003;48.002;7.788;2024-03-29T12:33:19;19.20;99.90
2002;DHT22;1003;48.002;7.788;2024-03-29T12:35:48;19.70;99.90
2002;DHT22;1003;48.002;7.788;2024-03-29T12:38:16;19.70;99.90
2002;DHT22;1003;48.002;7.788;2024-03-29T12:40:44;19.60;99.90
2002;DHT22;1003;48.002;7.788;2024-03-29T12:43:14;19.40;99.90
2002;DHT22;1003;48.002;7.788;2024-03-29T12:45:44;19.60;99.90
2002;DHT22;1003;48.002;7.788;2024-03-29T12:48:20;19.40;99.90
2002;DHT22;1003;48.002;7.788;2024-03-29T12:50:48;19.10;99.90
2002;DHT22;1003;48.002;7.788;2024-03-29T12:53:15;19.20;99.90
2002;DHT22;1003;48.002;7.788;2024-03-29T12:55:43;19.30;99.90
2002;DHT22;1003;48.002;7.788;2024-03-29T12:58:17;19.30;99.90
2002;DHT22;1003;48.002;7.788;2024-03-29T13:00:45;19.20;99.90
2002;DHT22;1003;48.002;7.788;2024-03-29T13:03:11;19.20;99.90
2002;DHT22;1003;48.002;7.788;2024-03-29T13:05:39;19.30;99.90
2002;DHT22;1003;48.002;7.788;2024-03-29T13:08:13;19.30;99.90
2002;DHT22;1003;48.002;7.788;2024-03-29T13:10:43;19.40;99.90
2002;DHT22;1003;48.002;7.788;2024-03-29T13:13:09;19.30;99.90
2002;DHT22;1003;48.002;7.788;2024-03-29T13:15:37;19.20;99.90
2002;DHT22;1003;48.002;7.788;2024-03-29T13:18:04;19.30;99.90
2002;DHT22;1003;48.002;7.788;2024-03-29T13:20:32;19.00;99.90
2002;DHT22;1003;48.002;7.788;2024-03-29T13:23:06;18.90;99.90
2002;DHT22;1003;48.002;7.788;2024-03-29T13:25:33;19.40;99.90
2002;DHT22;1003;48.002;7.788;2024-03-29T13:27:58;19.50;99.90
2002;DHT22;1003;48.002;7.788;2024-03-29T13:30:25;19.10;99.90
2002;DHT22;1003;48.002;7.788;2024-03-29T13:32:52;19.30;99.90
2002;DHT22;1003;48.002;7.788;2024-03-29T13:35:19;19.20;99.90
2002;DHT22;1003;48.002;7.788;2024-03-29T13:37:49;19.00;99.90
2002;DHT22;1003;48.002;7.788;2024-03-29T13:40:21;19.20;99.90
2002;DHT22;1003;48.002;7.788;2024-03-29T13:42:47;19.10;99.90
2002;DHT22;1003;48.002;7.788;2024-03-29T13:45:14;19.20;99.90
2002;DHT22;1003;48.002;7.788;2024-03-29T13:47:41;19.10;99.90
2002;DHT22;1003;48.002;7.788;2024-03-29T13:50:09;18.90;99.90
2002;DHT22;1003;48.002;7.788;2024-03-29T13:52:36;19.00;99.90
2002;DHT22;1003;48.002;7.788;2024-03-29T13:55:05;19.20;99.90
2002;DHT22;1003;48.002;7.788;2024-03-29T13:57:31;19.30;99.90
2002;DHT22;1003;48.002;7.788;2024-03-29T13:59:58;19.20;99.90
2002;DHT22;1003;48.002;7.788;2024-03-29T14:02:24;19.30;99.90
2002;DHT22;1003;48.002;7.788;2024-03-29T14:04:51;19.10;99.90
2002;DHT22;1003;48.002;7.788;2024-03-29T14:07:17;19.10;99.90
2002;DHT22;1003;48.002;7.788;2024-03-29T14:09:44;19.10;99.90
2002;DHT22;1003;48.002;7.788;2024-03-29T14:12:13;19.40;99.90
2002;DHT22;1003;48.002;7.788;2024-03-29T14:14:40;19.20;99.90
2002;DHT22;1003;48.002;7.788;2024-03-29T14:17:07;19.10;99.90
2002;DHT22;1003;48.002;7.788;2024-03-29T14:19:34;19.10;99.90
2002;DHT22;1003;48.002;7.788;2024-03-29T14:22:01;19.10;99.90
2002;DHT22;1003;48.002;7.788;2024-03-29T14:24:28;19.40;99.90
2002;DHT22;1003;48.002;7.788;2024-03-29T14:26:56;19.60;99.90
2002;DHT22;1003;48.002;7.788;2024-03-29T14:29:22;19.60;99.90
2002;DHT22;1003;48.002;7.788;2024-03-29T14:31:49;19.50;99.90
2002;DHT22;1003;48.002;7.788;2024-03-29T14:34:15;19.30;99.90
2002;DHT22;1003;48.002;7.788;2024-03-29T14:36:42;19.30;99.90
2002;DHT22;1003;48.002;7.788;2024-03-29T14:39:08;19.20;99.90
2002;DHT22;1003;48.002;7.788;2024-03-29T14:41:34;19.70;99.90
2002;DHT22;1003;48.002;7.788;2024-03-29T14:44:02;19.80;99.90
2002;DHT22;1003;48.002;7.788;2024-03-29T14:46:28;19.50;99.90
2002;DHT22;1003;48.002;7.788;2024-03-29T14:48:54;19.20;99.90
2002;DHT22;1003;48.002;7.788;2024-03-29T14:51:19;19.10;99.90
2002;DHT22;1003;48.002;7.788;2024-03-29T14:53:46;19.10;99.90
2002;DHT22;1003;48.002;7.788;2024-03-29T14:56:18;19.10;99.90
2002;DHT22;1003;48.002;7.788;2024-03-29T14:58:43;19.30;99.90
2002;DHT22;1003;48.002;7.788;2024-03-29T15:01:10;19.60;99.90
2002;DHT22;1003;48.002;7.788;2024-03-29T15:03:36;19.50;99.90
2002;DHT22;1003;48.002;7.788;2024-03-29T15:06:02;19.90;99.90
2002;DHT22;1003;48.002;7.788;2024-03-29T15:08:27;20.20;99.90
2002;DHT22;1003;48.002;7.788;2024-03-29T15:11:02;20.10;99.90
2002;DHT22;1003;48.002;7.788;2024-03-29T15:13:29;20.20;99.90
2002;DHT22;1003;48.002;7.788;2024-03-29T15:15:56;19.90;99.90
2002;DHT22;1003;48.002;7.788;2024-03-29T15:18:22;19.80;99.90
2002;DHT22;1003;48.002;7.788;2024-03-29T15:20:59;19.60;99.90
2002;DHT22;1003;48.002;7.788;2024-03-29T15:23:27;19.60;99.90
2002;DHT22;1003;48.002;7.788;2024-03-29T15:25:55;19.80;99.90
2002;DHT22;1003;48.002;7.788;2024-03-29T15:28:23;19.90;99.90
2002;DHT22;1003;48.002;7.788;2024-03-29T15:31:19;19.90;99.90
2002;DHT22;1003;48.002;7.788;2024-03-29T15:33:47;19.90;99.90
2002;DHT22;1003;48.002;7.788;2024-03-29T15:36:14;19.80;99.90
2002;DHT22;1003;48.002;7.788;2024-03-29T15:38:40;19.80;99.90
2002;DHT22;1003;48.002;7.788;2024-03-29T15:41:06;19.60;99.90
2002;DHT22;1003;48.002;7.788;2024-03-29T15:43:33;19.50;99.90
2002;DHT22;1003;48.002;7.788;2024-03-29T15:46:04;19.30;99.90
2002;DHT22;1003;48.002;7.788;2024-03-29T15:48:30;19.30;99.90
2002;DHT22;1003;48.002;7.788;2024-03-29T15:50:56;19.20;99.90
2002;DHT22;1003;48.002;7.788;2024-03-29T15:53:22;19.30;99.90
2002;DHT22;1003;48.002;7.788;2024-03-29T15:55:48;19.30;99.90
2002;DHT22;1003;48.002;7.788;2024-03-29T15:58:14;19.20;99.90
2002;DHT22;1003;48.002;7.788;2024-03-29T16:00:40;18.80;99.90
2002;DHT22;1003;48.002;7.788;2024-03-29T16:03:10;18.80;99.90
2002;DHT22;1003;48.002;7.788;2024-03-29T16:05:45;18.30;99.90
2002;DHT22;1003;48.002;7.788;2024-03-29T16:08:12;18.10;99.90
2002;DHT22;1003;48.002;7.788;2024-03-29T16:10:56;17.80;99.90
2002;DHT22;1003;48.002;7.788;2024-03-29T16:13:24;17.80;99.90
2002;DHT22;1003;48.002;7.788;2024-03-29T16:15:51;17.40;99.90
2002;DHT22;1003;48.002;7.788;2024-03-29T16:18:20;17.50;99.90
2002;DHT22;1003;48.002;7.788;2024-03-29T16:20:46;17.30;99.90